sensor_id;sensor_type;location;lat;lon;timestamp;P1;durP1;ratioP1;P2;durP2;ratioP2
51578;SDS011;47998;53.242;6.386;2023-02-19T00:01:12;72.40;;;29.80;;
51578;SDS011;47998;53.242;6.386;2023-02-19T00:03:40;75.35;;;29.48;;
51578;SDS011;47998;53.242;6.386;2023-02-19T00:06:08;74.22;;;31.42;;
51578;SDS011;47998;53.242;6.386;2023-02-19T00:08:35;79.07;;;31.77;;
51578;SDS011;47998;53.242;6.386;2023-02-19T00:13:36;69.00;;;26.67;;
51578;SDS011;47998;53.242;6.386;2023-02-19T00:16:07;67.95;;;28.60;;
51578;SDS011;47998;53.242;6.386;2023-02-19T00:18:53;65.88;;;28.33;;
51578;SDS011;47998;53.242;6.386;2023-02-19T00:21:20;79.35;;;27.42;;
51578;SDS011;47998;53.242;6.386;2023-02-19T00:23:47;64.82;;;26.88;;
51578;SDS011;47998;53.242;6.386;2023-02-19T00:26:17;70.50;;;28.17;;
51578;SDS011;47998;53.242;6.386;2023-02-19T00:28:43;72.25;;;29.05;;
51578;SDS011;47998;53.242;6.386;2023-02-19T00:31:26;72.75;;;28.02;;
51578;SDS011;47998;53.242;6.386;2023-02-19T00:33:58;74.50;;;30.75;;
51578;SDS011;47998;53.242;6.386;2023-02-19T00:36:31;70.40;;;29.15;;
51578;SDS011;47998;53.242;6.386;2023-02-19T00:39:00;79.00;;;28.60;;
51578;SDS011;47998;53.242;6.386;2023-02-19T00:41:26;68.63;;;28.10;;
51578;SDS011;47998;53.242;6.386;2023-02-19T00:46:32;75.97;;;27.60;;
51578;SDS011;47998;53.242;6.386;2023-02-19T00:49:06;84.00;;;27.05;;
51578;SDS011;47998;53.242;6.386;2023-02-19T00:51:33;69.38;;;24.83;;
51578;SDS011;47998;53.242;6.386;2023-02-19T00:54:01;77.72;;;25.63;;
51578;SDS011;47998;53.242;6.386;2023-02-19T00:56:28;63.75;;;24.45;;
51578;SDS011;47998;53.242;6.386;2023-02-19T00:58:53;70.85;;;25.35;;
51578;SDS011;47998;53.242;6.386;2023-02-19T01:01:20;72.07;;;25.52;;
51578;SDS011;47998;53.242;6.386;2023-02-19T01:03:46;68.82;;;23.73;;
51578;SDS011;47998;53.242;6.386;2023-02-19T01:06:12;61.13;;;24.92;;
51578;SDS011;47998;53.242;6.386;2023-02-19T01:08:41;61.92;;;24.77;;
51578;SDS011;47998;53.242;6.386;2023-02-19T01:11:07;57.45;;;23.55;;
51578;SDS011;47998;53.242;6.386;2023-02-19T01:13:34;56.03;;;22.40;;
51578;SDS011;47998;53.242;6.386;2023-02-19T01:16:05;65.72;;;23.27;;
51578;SDS011;47998;53.242;6.386;2023-02-19T01:18:32;63.53;;;23.02;;
51578;SDS011;47998;53.242;6.386;2023-02-19T01:21:03;60.92;;;23.88;;
51578;SDS011;47998;53.242;6.386;2023-02-19T01:23:31;60.92;;;23.05;;
51578;SDS011;47998;53.242;6.386;2023-02-19T01:25:56;57.95;;;23.27;;
51578;SDS011;47998;53.242;6.386;2023-02-19T01:28:22;48.75;;;20.83;;
51578;SDS011;47998;53.242;6.386;2023-02-19T01:30:48;57.45;;;17.65;;
51578;SDS011;47998;53.242;6.386;2023-02-19T01:33:14;48.33;;;20.67;;
51578;SDS011;47998;53.242;6.386;2023-02-19T01:35:39;34.13;;;12.05;;
51578;SDS011;47998;53.242;6.386;2023-02-19T01:38:05;16.42;;;5.88;;
51578;SDS011;47998;53.242;6.386;2023-02-19T01:40:33;10.80;;;3.50;;
51578;SDS011;47998;53.242;6.386;2023-02-19T01:42:59;8.65;;;3.80;;
51578;SDS011;47998;53.242;6.386;2023-02-19T01:45:29;7.50;;;2.90;;
51578;SDS011;47998;53.242;6.386;2023-02-19T01:47:57;4.00;;;1.98;;
51578;SDS011;47998;53.242;6.386;2023-02-19T01:50:48;7.03;;;2.47;;
51578;SDS011;47998;53.242;6.386;2023-02-19T01:53:19;7.57;;;2.25;;
51578;SDS011;47998;53.242;6.386;2023-02-19T01:55:48;5.40;;;2.20;;
51578;SDS011;47998;53.242;6.386;2023-02-19T01:58:19;4.28;;;1.70;;
51578;SDS011;47998;53.242;6.386;2023-02-19T02:00:46;6.38;;;2.78;;
51578;SDS011;47998;53.242;6.386;2023-02-19T02:03:11;7.38;;;3.15;;
51578;SDS011;47998;53.242;6.386;2023-02-19T02:05:43;10.40;;;3.90;;
51578;SDS011;47998;53.242;6.386;2023-02-19T02:08:25;9.27;;;3.40;;
51578;SDS011;47998;53.242;6.386;2023-02-19T02:11:11;4.45;;;2.17;;
51578;SDS011;47998;53.242;6.386;2023-02-19T02:13:37;6.03;;;2.30;;
51578;SDS011;47998;53.242;6.386;2023-02-19T02:16:16;5.82;;;2.53;;
51578;SDS011;47998;53.242;6.386;2023-02-19T02:32:50;7.13;;;2.72;;
51578;SDS011;47998;53.242;6.386;2023-02-19T02:35:23;7.07;;;3.40;;
51578;SDS011;47998;53.242;6.386;2023-02-19T02:37:52;9.65;;;3.25;;
51578;SDS011;47998;53.242;6.386;2023-02-19T02:40:21;7.90;;;3.20;;
51578;SDS011;47998;53.242;6.386;2023-02-19T02:42:48;10.88;;;3.80;;
51578;SDS011;47998;53.242;6.386;2023-02-19T02:48:08;10.85;;;3.85;;
51578;SDS011;47998;53.242;6.386;2023-02-19T02:50:44;11.07;;;3.40;;
51578;SDS011;47998;53.242;6.386;2023-02-19T02:53:22;6.07;;;2.80;;
51578;SDS011;47998;53.242;6.386;2023-02-19T02:56:18;10.63;;;3.97;;
51578;SDS011;47998;53.242;6.386;2023-02-19T02:58:45;9.00;;;3.20;;
51578;SDS011;47998;53.242;6.386;2023-02-19T03:01:18;9.40;;;3.70;;
51578;SDS011;47998;53.242;6.386;2023-02-19T03:04:29;9.98;;;3.05;;
51578;SDS011;47998;53.242;6.386;2023-02-19T03:06:56;9.60;;;4.32;;
51578;SDS011;47998;53.242;6.386;2023-02-19T03:09:28;13.25;;;3.92;;
51578;SDS011;47998;53.242;6.386;2023-02-19T03:12:09;13.23;;;3.67;;
51578;SDS011;47998;53.242;6.386;2023-02-19T03:14:58;6.97;;;2.65;;
51578;SDS011;47998;53.242;6.386;2023-02-19T03:17:49;10.52;;;3.10;;
51578;SDS011;47998;53.242;6.386;2023-02-19T03:20:36;10.90;;;3.50;;
51578;SDS011;47998;53.242;6.386;2023-02-19T03:23:08;10.00;;;3.95;;
51578;SDS011;47998;53.242;6.386;2023-02-19T03:25:37;13.05;;;3.60;;
51578;SDS011;47998;53.242;6.386;2023-02-19T03:28:24;7.72;;;3.38;;
51578;SDS011;47998;53.242;6.386;2023-02-19T03:31:11;12.85;;;3.70;;
51578;SDS011;47998;53.242;6.386;2023-02-19T03:33:40;11.52;;;3.67;;
51578;SDS011;47998;53.242;6.386;2023-02-19T03:36:09;12.07;;;3.50;;
51578;SDS011;47998;53.242;6.386;2023-02-19T03:38:43;13.20;;;4.22;;
51578;SDS011;47998;53.242;6.386;2023-02-19T03:41:29;8.70;;;3.28;;
51578;SDS011;47998;53.242;6.386;2023-02-19T03:54:49;15.65;;;4.22;;
51578;SDS011;47998;53.242;6.386;2023-02-19T04:00:25;14.60;;;4.63;;
51578;SDS011;47998;53.242;6.386;2023-02-19T04:03:01;16.17;;;4.65;;
51578;SDS011;47998;53.242;6.386;2023-02-19T04:05:53;18.27;;;5.70;;
51578;SDS011;47998;53.242;6.386;2023-02-19T04:08:23;17.33;;;5.97;;
51578;SDS011;47998;53.242;6.386;2023-02-19T04:10:51;17.45;;;4.93;;
51578;SDS011;47998;53.242;6.386;2023-02-19T04:13:23;15.45;;;4.18;;
51578;SDS011;47998;53.242;6.386;2023-02-19T04:15:53;9.07;;;3.28;;
51578;SDS011;47998;53.242;6.386;2023-02-19T04:18:26;7.60;;;3.25;;
51578;SDS011;47998;53.242;6.386;2023-02-19T04:20:55;9.45;;;3.60;;
51578;SDS011;47998;53.242;6.386;2023-02-19T04:23:24;6.03;;;3.33;;
51578;SDS011;47998;53.242;6.386;2023-02-19T04:25:53;11.30;;;4.03;;
51578;SDS011;47998;53.242;6.386;2023-02-19T04:28:23;8.45;;;4.10;;
51578;SDS011;47998;53.242;6.386;2023-02-19T04:30:48;9.23;;;4.22;;
51578;SDS011;47998;53.242;6.386;2023-02-19T04:33:14;10.38;;;4.43;;
51578;SDS011;47998;53.242;6.386;2023-02-19T04:35:40;10.95;;;4.55;;
51578;SDS011;47998;53.242;6.386;2023-02-19T04:38:06;10.52;;;4.60;;
51578;SDS011;47998;53.242;6.386;2023-02-19T04:40:31;11.50;;;5.10;;
51578;SDS011;47998;53.242;6.386;2023-02-19T04:42:57;8.88;;;4.97;;
51578;SDS011;47998;53.242;6.386;2023-02-19T04:45:23;10.90;;;4.72;;
51578;SDS011;47998;53.242;6.386;2023-02-19T04:47:49;9.27;;;4.07;;
51578;SDS011;47998;53.242;6.386;2023-02-19T04:50:14;6.60;;;2.80;;
51578;SDS011;47998;53.242;6.386;2023-02-19T04:52:40;6.95;;;2.40;;
51578;SDS011;47998;53.242;6.386;2023-02-19T04:55:06;3.40;;;1.98;;
51578;SDS011;47998;53.242;6.386;2023-02-19T04:57:32;6.22;;;2.20;;
51578;SDS011;47998;53.242;6.386;2023-02-19T04:59:59;7.30;;;1.98;;
51578;SDS011;47998;53.242;6.386;2023-02-19T05:02:25;3.63;;;1.40;;
51578;SDS011;47998;53.242;6.386;2023-02-19T05:04:50;3.47;;;1.20;;
51578;SDS011;47998;53.242;6.386;2023-02-19T05:07:17;2.67;;;0.82;;
51578;SDS011;47998;53.242;6.386;2023-02-19T05:09:42;4.78;;;1.55;;
51578;SDS011;47998;53.242;6.386;2023-02-19T05:12:08;2.60;;;0.75;;
51578;SDS011;47998;53.242;6.386;2023-02-19T05:14:34;3.00;;;0.80;;
51578;SDS011;47998;53.242;6.386;2023-02-19T05:16:59;4.18;;;1.00;;
51578;SDS011;47998;53.242;6.386;2023-02-19T05:19:25;2.25;;;0.57;;
51578;SDS011;47998;53.242;6.386;2023-02-19T05:21:51;3.30;;;0.80;;
51578;SDS011;47998;53.242;6.386;2023-02-19T05:24:16;4.97;;;1.13;;
51578;SDS011;47998;53.242;6.386;2023-02-19T05:26:43;2.13;;;0.93;;
51578;SDS011;47998;53.242;6.386;2023-02-19T05:29:08;2.33;;;0.55;;
51578;SDS011;47998;53.242;6.386;2023-02-19T05:31:34;4.50;;;0.80;;
51578;SDS011;47998;53.242;6.386;2023-02-19T05:34:00;2.35;;;0.80;;
51578;SDS011;47998;53.242;6.386;2023-02-19T05:36:26;2.47;;;0.93;;
51578;SDS011;47998;53.242;6.386;2023-02-19T05:38:52;5.72;;;1.20;;
51578;SDS011;47998;53.242;6.386;2023-02-19T05:41:21;4.53;;;0.82;;
51578;SDS011;47998;53.242;6.386;2023-02-19T05:43:49;2.70;;;1.17;;
51578;SDS011;47998;53.242;6.386;2023-02-19T05:46:16;3.65;;;1.23;;
51578;SDS011;47998;53.242;6.386;2023-02-19T05:48:44;1.98;;;0.80;;
51578;SDS011;47998;53.242;6.386;2023-02-19T05:51:12;2.95;;;1.10;;
51578;SDS011;47998;53.242;6.386;2023-02-19T05:53:39;3.33;;;1.20;;
51578;SDS011;47998;53.242;6.386;2023-02-19T05:56:18;3.53;;;1.25;;
51578;SDS011;47998;53.242;6.386;2023-02-19T05:58:51;4.30;;;0.90;;
51578;SDS011;47998;53.242;6.386;2023-02-19T06:01:18;4.05;;;0.85;;
51578;SDS011;47998;53.242;6.386;2023-02-19T06:03:46;4.47;;;0.90;;
51578;SDS011;47998;53.242;6.386;2023-02-19T06:06:13;2.50;;;0.90;;
51578;SDS011;47998;53.242;6.386;2023-02-19T06:08:39;4.68;;;1.17;;
51578;SDS011;47998;53.242;6.386;2023-02-19T06:11:05;3.42;;;0.90;;
51578;SDS011;47998;53.242;6.386;2023-02-19T06:13:31;5.45;;;1.27;;
51578;SDS011;47998;53.242;6.386;2023-02-19T06:15:57;6.85;;;1.15;;
51578;SDS011;47998;53.242;6.386;2023-02-19T06:18:22;5.50;;;1.10;;
51578;SDS011;47998;53.242;6.386;2023-02-19T06:20:48;4.75;;;1.00;;
51578;SDS011;47998;53.242;6.386;2023-02-19T06:23:14;9.75;;;1.30;;
51578;SDS011;47998;53.242;6.386;2023-02-19T06:25:40;4.07;;;1.20;;
51578;SDS011;47998;53.242;6.386;2023-02-19T06:28:05;10.10;;;1.13;;
51578;SDS011;47998;53.242;6.386;2023-02-19T06:30:33;8.75;;;1.42;;
51578;SDS011;47998;53.242;6.386;2023-02-19T06:32:59;7.20;;;1.42;;
51578;SDS011;47998;53.242;6.386;2023-02-19T06:35:24;6.22;;;1.40;;
51578;SDS011;47998;53.242;6.386;2023-02-19T06:37:50;6.45;;;1.67;;
51578;SDS011;47998;53.242;6.386;2023-02-19T06:40:16;11.02;;;3.22;;
51578;SDS011;47998;53.242;6.386;2023-02-19T06:42:41;6.40;;;1.98;;
51578;SDS011;47998;53.242;6.386;2023-02-19T06:45:07;6.68;;;2.22;;
51578;SDS011;47998;53.242;6.386;2023-02-19T06:47:33;13.70;;;2.38;;
51578;SDS011;47998;53.242;6.386;2023-02-19T06:49:59;15.60;;;3.47;;
51578;SDS011;47998;53.242;6.386;2023-02-19T06:56:18;7.97;;;2.22;;
51578;SDS011;47998;53.242;6.386;2023-02-19T06:58:48;11.25;;;2.97;;
51578;SDS011;47998;53.242;6.386;2023-02-19T07:01:14;9.88;;;2.88;;
51578;SDS011;47998;53.242;6.386;2023-02-19T07:03:40;6.75;;;2.50;;
51578;SDS011;47998;53.242;6.386;2023-02-19T07:06:06;13.18;;;2.50;;
51578;SDS011;47998;53.242;6.386;2023-02-19T07:08:32;10.65;;;3.28;;
51578;SDS011;47998;53.242;6.386;2023-02-19T07:10:58;12.40;;;3.53;;
51578;SDS011;47998;53.242;6.386;2023-02-19T07:13:24;11.20;;;2.83;;
51578;SDS011;47998;53.242;6.386;2023-02-19T07:15:51;8.45;;;2.60;;
51578;SDS011;47998;53.242;6.386;2023-02-19T07:18:21;10.95;;;2.70;;
51578;SDS011;47998;53.242;6.386;2023-02-19T07:20:47;13.05;;;3.22;;
51578;SDS011;47998;53.242;6.386;2023-02-19T07:23:13;11.10;;;3.13;;
51578;SDS011;47998;53.242;6.386;2023-02-19T07:25:39;13.18;;;3.83;;
51578;SDS011;47998;53.242;6.386;2023-02-19T07:28:05;17.38;;;4.07;;
51578;SDS011;47998;53.242;6.386;2023-02-19T07:30:31;10.90;;;3.58;;
51578;SDS011;47998;53.242;6.386;2023-02-19T07:32:57;11.40;;;3.83;;
51578;SDS011;47998;53.242;6.386;2023-02-19T07:35:22;13.35;;;4.20;;
51578;SDS011;47998;53.242;6.386;2023-02-19T07:37:48;12.40;;;3.03;;
51578;SDS011;47998;53.242;6.386;2023-02-19T07:40:14;10.00;;;3.08;;
51578;SDS011;47998;53.242;6.386;2023-02-19T07:42:40;7.95;;;3.30;;
51578;SDS011;47998;53.242;6.386;2023-02-19T07:45:06;14.18;;;3.40;;
51578;SDS011;47998;53.242;6.386;2023-02-19T07:47:31;13.70;;;4.13;;
51578;SDS011;47998;53.242;6.386;2023-02-19T07:49:57;12.68;;;3.35;;
51578;SDS011;47998;53.242;6.386;2023-02-19T07:52:23;9.77;;;4.20;;
51578;SDS011;47998;53.242;6.386;2023-02-19T07:54:53;15.50;;;4.45;;
51578;SDS011;47998;53.242;6.386;2023-02-19T07:57:19;12.70;;;4.30;;
51578;SDS011;47998;53.242;6.386;2023-02-19T07:59:44;12.75;;;3.95;;
51578;SDS011;47998;53.242;6.386;2023-02-19T08:02:19;10.68;;;3.50;;
51578;SDS011;47998;53.242;6.386;2023-02-19T08:07:33;16.33;;;4.38;;
51578;SDS011;47998;53.242;6.386;2023-02-19T08:10:00;10.90;;;4.30;;
51578;SDS011;47998;53.242;6.386;2023-02-19T08:12:44;14.07;;;4.53;;
51578;SDS011;47998;53.242;6.386;2023-02-19T08:15:37;12.55;;;4.60;;
51578;SDS011;47998;53.242;6.386;2023-02-19T08:18:02;14.75;;;4.63;;
51578;SDS011;47998;53.242;6.386;2023-02-19T08:20:28;13.85;;;4.97;;
51578;SDS011;47998;53.242;6.386;2023-02-19T08:22:54;11.43;;;4.60;;
51578;SDS011;47998;53.242;6.386;2023-02-19T08:25:22;10.60;;;4.93;;
51578;SDS011;47998;53.242;6.386;2023-02-19T08:27:48;13.80;;;5.20;;
51578;SDS011;47998;53.242;6.386;2023-02-19T08:30:13;11.43;;;3.35;;
51578;SDS011;47998;53.242;6.386;2023-02-19T08:32:39;13.73;;;3.05;;
51578;SDS011;47998;53.242;6.386;2023-02-19T08:35:05;11.80;;;3.60;;
51578;SDS011;47998;53.242;6.386;2023-02-19T08:37:38;10.55;;;2.63;;
51578;SDS011;47998;53.242;6.386;2023-02-19T08:40:04;9.57;;;2.50;;
51578;SDS011;47998;53.242;6.386;2023-02-19T08:42:32;8.70;;;2.30;;
51578;SDS011;47998;53.242;6.386;2023-02-19T08:45:03;6.20;;;2.20;;
51578;SDS011;47998;53.242;6.386;2023-02-19T08:47:29;11.43;;;2.72;;
51578;SDS011;47998;53.242;6.386;2023-02-19T08:49:55;5.88;;;2.08;;
51578;SDS011;47998;53.242;6.386;2023-02-19T08:52:20;9.00;;;2.05;;
51578;SDS011;47998;53.242;6.386;2023-02-19T08:54:46;5.97;;;1.77;;
51578;SDS011;47998;53.242;6.386;2023-02-19T08:57:12;7.43;;;2.55;;
51578;SDS011;47998;53.242;6.386;2023-02-19T08:59:37;8.48;;;2.00;;
51578;SDS011;47998;53.242;6.386;2023-02-19T09:02:03;6.78;;;2.30;;
51578;SDS011;47998;53.242;6.386;2023-02-19T09:04:29;11.93;;;2.88;;
51578;SDS011;47998;53.242;6.386;2023-02-19T09:06:55;7.75;;;2.50;;
51578;SDS011;47998;53.242;6.386;2023-02-19T09:09:20;3.88;;;1.85;;
51578;SDS011;47998;53.242;6.386;2023-02-19T09:11:46;6.60;;;1.95;;
51578;SDS011;47998;53.242;6.386;2023-02-19T09:14:12;4.45;;;1.88;;
51578;SDS011;47998;53.242;6.386;2023-02-19T09:16:38;9.23;;;2.13;;
51578;SDS011;47998;53.242;6.386;2023-02-19T09:19:03;8.13;;;2.03;;
51578;SDS011;47998;53.242;6.386;2023-02-19T09:21:29;8.23;;;2.42;;
51578;SDS011;47998;53.242;6.386;2023-02-19T09:23:55;6.45;;;2.00;;
51578;SDS011;47998;53.242;6.386;2023-02-19T09:26:21;6.65;;;1.73;;
51578;SDS011;47998;53.242;6.386;2023-02-19T09:28:47;7.93;;;1.77;;
51578;SDS011;47998;53.242;6.386;2023-02-19T09:31:13;6.88;;;1.60;;
51578;SDS011;47998;53.242;6.386;2023-02-19T09:33:43;7.95;;;1.90;;
51578;SDS011;47998;53.242;6.386;2023-02-19T09:36:10;5.80;;;1.75;;
51578;SDS011;47998;53.242;6.386;2023-02-19T09:38:37;6.18;;;1.17;;
51578;SDS011;47998;53.242;6.386;2023-02-19T09:41:11;3.47;;;1.00;;
51578;SDS011;47998;53.242;6.386;2023-02-19T09:44:00;8.10;;;1.67;;
51578;SDS011;47998;53.242;6.386;2023-02-19T09:49:06;3.05;;;0.73;;
51578;SDS011;47998;53.242;6.386;2023-02-19T09:51:42;6.97;;;1.25;;
51578;SDS011;47998;53.242;6.386;2023-02-19T09:54:14;5.30;;;0.60;;
51578;SDS011;47998;53.242;6.386;2023-02-19T09:56:46;1.52;;;0.50;;
51578;SDS011;47998;53.242;6.386;2023-02-19T09:59:18;6.38;;;0.75;;
51578;SDS011;47998;53.242;6.386;2023-02-19T10:01:48;4.25;;;0.60;;
51578;SDS011;47998;53.242;6.386;2023-02-19T10:04:19;2.80;;;0.73;;
51578;SDS011;47998;53.242;6.386;2023-02-19T10:06:45;4.25;;;0.85;;
51578;SDS011;47998;53.242;6.386;2023-02-19T10:11:50;6.78;;;0.93;;
51578;SDS011;47998;53.242;6.386;2023-02-19T10:14:18;6.07;;;0.70;;
51578;SDS011;47998;53.242;6.386;2023-02-19T10:16:52;6.07;;;0.93;;
51578;SDS011;47998;53.242;6.386;2023-02-19T10:19:18;11.38;;;1.67;;
51578;SDS011;47998;53.242;6.386;2023-02-19T10:21:44;3.40;;;0.80;;
51578;SDS011;47998;53.242;6.386;2023-02-19T10:24:13;5.35;;;0.47;;
51578;SDS011;47998;53.242;6.386;2023-02-19T10:26:45;6.10;;;0.82;;
51578;SDS011;47998;53.242;6.386;2023-02-19T10:29:11;2.92;;;0.57;;
51578;SDS011;47998;53.242;6.386;2023-02-19T10:31:37;4.95;;;1.40;;
51578;SDS011;47998;53.242;6.386;2023-02-19T10:34:03;4.65;;;0.90;;
51578;SDS011;47998;53.242;6.386;2023-02-19T10:36:31;3.42;;;0.68;;
51578;SDS011;47998;53.242;6.386;2023-02-19T10:39:01;2.55;;;0.50;;
51578;SDS011;47998;53.242;6.386;2023-02-19T10:41:49;4.80;;;0.55;;
51578;SDS011;47998;53.242;6.386;2023-02-19T10:44:26;5.60;;;0.55;;
51578;SDS011;47998;53.242;6.386;2023-02-19T10:46:56;4.55;;;1.63;;
51578;SDS011;47998;53.242;6.386;2023-02-19T10:49:31;5.35;;;0.82;;
51578;SDS011;47998;53.242;6.386;2023-02-19T10:52:13;3.85;;;0.57;;
51578;SDS011;47998;53.242;6.386;2023-02-19T10:54:45;3.65;;;0.40;;
51578;SDS011;47998;53.242;6.386;2023-02-19T10:59:53;5.75;;;0.73;;
51578;SDS011;47998;53.242;6.386;2023-02-19T11:02:23;4.72;;;0.75;;
51578;SDS011;47998;53.242;6.386;2023-02-19T11:07:36;4.13;;;0.73;;
51578;SDS011;47998;53.242;6.386;2023-02-19T11:10:17;3.63;;;0.52;;
51578;SDS011;47998;53.242;6.386;2023-02-19T11:12:55;5.22;;;0.50;;
51578;SDS011;47998;53.242;6.386;2023-02-19T11:15:26;3.85;;;0.70;;
51578;SDS011;47998;53.242;6.386;2023-02-19T11:18:06;4.78;;;1.13;;
51578;SDS011;47998;53.242;6.386;2023-02-19T11:20:38;7.85;;;1.40;;
51578;SDS011;47998;53.242;6.386;2023-02-19T11:23:24;6.40;;;0.88;;
51578;SDS011;47998;53.242;6.386;2023-02-19T11:26:01;5.45;;;1.75;;
51578;SDS011;47998;53.242;6.386;2023-02-19T11:28:40;4.18;;;0.60;;
51578;SDS011;47998;53.242;6.386;2023-02-19T11:31:14;5.32;;;0.73;;
51578;SDS011;47998;53.242;6.386;2023-02-19T11:34:22;4.00;;;0.40;;
51578;SDS011;47998;53.242;6.386;2023-02-19T11:39:45;4.63;;;0.30;;
51578;SDS011;47998;53.242;6.386;2023-02-19T11:42:35;5.00;;;0.50;;
51578;SDS011;47998;53.242;6.386;2023-02-19T11:53:26;3.03;;;0.73;;
51578;SDS011;47998;53.242;6.386;2023-02-19T11:56:01;4.28;;;0.60;;
51578;SDS011;47998;53.242;6.386;2023-02-19T11:59:06;4.05;;;0.40;;
51578;SDS011;47998;53.242;6.386;2023-02-19T12:29:10;2.58;;;0.40;;
51578;SDS011;47998;53.242;6.386;2023-02-19T12:31:52;4.55;;;0.40;;
51578;SDS011;47998;53.242;6.386;2023-02-19T12:34:42;2.58;;;0.32;;
51578;SDS011;47998;53.242;6.386;2023-02-19T12:40:32;4.50;;;0.60;;
51578;SDS011;47998;53.242;6.386;2023-02-19T12:43:20;2.63;;;0.30;;
51578;SDS011;47998;53.242;6.386;2023-02-19T12:48:35;8.13;;;0.65;;
51578;SDS011;47998;53.242;6.386;2023-02-19T12:53:46;4.10;;;0.43;;
51578;SDS011;47998;53.242;6.386;2023-02-19T12:56:18;2.45;;;0.35;;
51578;SDS011;47998;53.242;6.386;2023-02-19T12:58:49;4.35;;;0.82;;
51578;SDS011;47998;53.242;6.386;2023-02-19T13:01:25;2.45;;;0.60;;
51578;SDS011;47998;53.242;6.386;2023-02-19T13:06:34;5.38;;;0.98;;
51578;SDS011;47998;53.242;6.386;2023-02-19T13:09:15;6.43;;;0.50;;
51578;SDS011;47998;53.242;6.386;2023-02-19T13:12:06;7.30;;;0.90;;
51578;SDS011;47998;53.242;6.386;2023-02-19T13:14:44;6.05;;;0.68;;
51578;SDS011;47998;53.242;6.386;2023-02-19T13:23:08;4.28;;;0.50;;
51578;SDS011;47998;53.242;6.386;2023-02-19T13:26:16;5.80;;;0.70;;
51578;SDS011;47998;53.242;6.386;2023-02-19T13:29:00;6.30;;;1.20;;
51578;SDS011;47998;53.242;6.386;2023-02-19T13:34:32;4.25;;;0.55;;
51578;SDS011;47998;53.242;6.386;2023-02-19T13:39:48;6.25;;;0.70;;
51578;SDS011;47998;53.242;6.386;2023-02-19T13:42:26;5.38;;;0.88;;
51578;SDS011;47998;53.242;6.386;2023-02-19T13:44:56;6.35;;;1.33;;
51578;SDS011;47998;53.242;6.386;2023-02-19T13:52:55;6.97;;;0.57;;
51578;SDS011;47998;53.242;6.386;2023-02-19T13:55:42;6.85;;;0.73;;
51578;SDS011;47998;53.242;6.386;2023-02-19T14:01:15;5.30;;;0.88;;
51578;SDS011;47998;53.242;6.386;2023-02-19T14:03:52;6.20;;;0.75;;
51578;SDS011;47998;53.242;6.386;2023-02-19T14:06:38;7.60;;;0.77;;
51578;SDS011;47998;53.242;6.386;2023-02-19T14:12:02;6.25;;;1.15;;
51578;SDS011;47998;53.242;6.386;2023-02-19T14:14:37;7.43;;;1.00;;
51578;SDS011;47998;53.242;6.386;2023-02-19T14:27:59;2.35;;;0.43;;
51578;SDS011;47998;53.242;6.386;2023-02-19T14:30:26;8.60;;;0.70;;
51578;SDS011;47998;53.242;6.386;2023-02-19T14:32:52;8.10;;;1.55;;
51578;SDS011;47998;53.242;6.386;2023-02-19T14:35:23;4.13;;;0.50;;
51578;SDS011;47998;53.242;6.386;2023-02-19T14:37:53;5.18;;;0.85;;
51578;SDS011;47998;53.242;6.386;2023-02-19T14:40:22;8.68;;;0.80;;
51578;SDS011;47998;53.242;6.386;2023-02-19T14:42:52;5.50;;;1.17;;
51578;SDS011;47998;53.242;6.386;2023-02-19T14:45:20;7.22;;;1.73;;
51578;SDS011;47998;53.242;6.386;2023-02-19T14:47:46;7.88;;;1.00;;
51578;SDS011;47998;53.242;6.386;2023-02-19T14:50:35;6.78;;;1.10;;
51578;SDS011;47998;53.242;6.386;2023-02-19T14:53:02;6.07;;;0.93;;
51578;SDS011;47998;53.242;6.386;2023-02-19T14:55:30;5.20;;;0.60;;
51578;SDS011;47998;53.242;6.386;2023-02-19T14:58:00;8.32;;;0.77;;
51578;SDS011;47998;53.242;6.386;2023-02-19T15:00:32;5.88;;;0.95;;
51578;SDS011;47998;53.242;6.386;2023-02-19T15:03:01;12.27;;;0.80;;
51578;SDS011;47998;53.242;6.386;2023-02-19T15:05:32;5.35;;;1.50;;
51578;SDS011;47998;53.242;6.386;2023-02-19T15:08:02;6.10;;;0.85;;
51578;SDS011;47998;53.242;6.386;2023-02-19T15:10:33;5.10;;;0.63;;
51578;SDS011;47998;53.242;6.386;2023-02-19T15:13:01;7.20;;;1.23;;
51578;SDS011;47998;53.242;6.386;2023-02-19T15:15:31;5.35;;;0.80;;
51578;SDS011;47998;53.242;6.386;2023-02-19T15:18:00;5.25;;;1.08;;
51578;SDS011;47998;53.242;6.386;2023-02-19T15:20:29;5.22;;;0.70;;
51578;SDS011;47998;53.242;6.386;2023-02-19T15:23:00;5.03;;;0.90;;
51578;SDS011;47998;53.242;6.386;2023-02-19T15:25:30;4.60;;;0.70;;
51578;SDS011;47998;53.242;6.386;2023-02-19T15:30:42;4.50;;;0.75;;
51578;SDS011;47998;53.242;6.386;2023-02-19T15:33:15;9.05;;;1.95;;
51578;SDS011;47998;53.242;6.386;2023-02-19T15:35:47;5.25;;;0.60;;
51578;SDS011;47998;53.242;6.386;2023-02-19T15:38:14;5.75;;;0.60;;
51578;SDS011;47998;53.242;6.386;2023-02-19T15:40:42;8.10;;;0.77;;
51578;SDS011;47998;53.242;6.386;2023-02-19T15:45:48;3.80;;;0.93;;
51578;SDS011;47998;53.242;6.386;2023-02-19T15:48:17;4.63;;;0.80;;
51578;SDS011;47998;53.242;6.386;2023-02-19T15:50:46;9.13;;;0.80;;
51578;SDS011;47998;53.242;6.386;2023-02-19T15:53:32;6.22;;;1.25;;
51578;SDS011;47998;53.242;6.386;2023-02-19T16:03:52;8.80;;;0.90;;
51578;SDS011;47998;53.242;6.386;2023-02-19T16:06:19;5.55;;;1.23;;
51578;SDS011;47998;53.242;6.386;2023-02-19T16:13:48;6.20;;;0.80;;
51578;SDS011;47998;53.242;6.386;2023-02-19T16:16:20;5.00;;;0.95;;
51578;SDS011;47998;53.242;6.386;2023-02-19T16:18:50;10.57;;;3.03;;
51578;SDS011;47998;53.242;6.386;2023-02-19T16:21:19;8.57;;;0.65;;
51578;SDS011;47998;53.242;6.386;2023-02-19T16:23:47;7.53;;;0.90;;
51578;SDS011;47998;53.242;6.386;2023-02-19T16:26:15;6.60;;;1.33;;
51578;SDS011;47998;53.242;6.386;2023-02-19T16:28:42;6.68;;;0.90;;
51578;SDS011;47998;53.242;6.386;2023-02-19T16:31:08;6.47;;;0.82;;
51578;SDS011;47998;53.242;6.386;2023-02-19T16:39:03;5.65;;;0.98;;
51578;SDS011;47998;53.242;6.386;2023-02-19T16:41:33;7.70;;;1.08;;
51578;SDS011;47998;53.242;6.386;2023-02-19T16:46:49;8.30;;;0.95;;
51578;SDS011;47998;53.242;6.386;2023-02-19T16:49:17;8.77;;;0.85;;
51578;SDS011;47998;53.242;6.386;2023-02-19T16:51:43;8.85;;;1.15;;
51578;SDS011;47998;53.242;6.386;2023-02-19T16:54:10;7.15;;;0.85;;
51578;SDS011;47998;53.242;6.386;2023-02-19T16:56:36;5.30;;;0.65;;
51578;SDS011;47998;53.242;6.386;2023-02-19T16:59:02;8.85;;;0.90;;
51578;SDS011;47998;53.242;6.386;2023-02-19T17:01:28;6.63;;;0.73;;
51578;SDS011;47998;53.242;6.386;2023-02-19T17:03:57;11.35;;;1.73;;
51578;SDS011;47998;53.242;6.386;2023-02-19T17:06:33;7.55;;;1.00;;
51578;SDS011;47998;53.242;6.386;2023-02-19T17:09:01;8.05;;;1.08;;
51578;SDS011;47998;53.242;6.386;2023-02-19T17:11:28;6.53;;;2.05;;
51578;SDS011;47998;53.242;6.386;2023-02-19T17:13:54;14.35;;;1.67;;
51578;SDS011;47998;53.242;6.386;2023-02-19T17:16:24;6.80;;;1.35;;
51578;SDS011;47998;53.242;6.386;2023-02-19T17:18:52;6.17;;;1.23;;
51578;SDS011;47998;53.242;6.386;2023-02-19T17:21:20;11.02;;;1.10;;
51578;SDS011;47998;53.242;6.386;2023-02-19T17:23:54;9.30;;;1.42;;
51578;SDS011;47998;53.242;6.386;2023-02-19T17:26:25;11.43;;;1.88;;
51578;SDS011;47998;53.242;6.386;2023-02-19T17:28:54;11.75;;;2.42;;
51578;SDS011;47998;53.242;6.386;2023-02-19T17:31:20;6.60;;;1.38;;
51578;SDS011;47998;53.242;6.386;2023-02-19T17:33:46;6.68;;;1.40;;
51578;SDS011;47998;53.242;6.386;2023-02-19T17:36:17;13.20;;;2.25;;
51578;SDS011;47998;53.242;6.386;2023-02-19T17:38:44;9.27;;;1.77;;
51578;SDS011;47998;53.242;6.386;2023-02-19T17:41:10;6.85;;;1.00;;
51578;SDS011;47998;53.242;6.386;2023-02-19T17:43:35;6.47;;;1.58;;
51578;SDS011;47998;53.242;6.386;2023-02-19T17:46:01;8.23;;;1.20;;